Time;durP1;ratioP1;P1;durP2;ratioP2;P2;SDS_P1;SDS_P2;PMS_P1;PMS_P2;Temp;Humidity;BMP_temperature;BMP_pressure;BME280_temperature;BME280_humidity;BME280_pressure;Samples;Min_cycle;Max_cycle;Signal;HPM_P1;HPM_P2
2023/12/15 00:01:32;;;;;;;30.70;19.90;;;;;;;2.13;82.57;101943.22;104914;1254;72439;-58
2023/12/15 00:03:59;;;;;;;29.50;19.40;;;;;;;2.15;82.66;101944.91;104829;1260;138470;-59
2023/12/15 00:06:26;;;;;;;28.10;18.10;;;;;;;2.16;82.61;101943.42;104722;1261;61379;-58
2023/12/15 00:08:52;;;;;;;29.30;18.40;;;;;;;2.17;82.63;101944.65;104756;1256;138649;-59
2023/12/15 00:11:19;;;;;;;29.70;18.90;;;;;;;2.18;82.74;101944.96;104835;1256;66811;-59
2023/12/15 00:13:46;;;;;;;28.80;19.00;;;;;;;2.18;82.70;101941.98;104849;1255;73094;-59
2023/12/15 00:16:12;;;;;;;27.20;17.80;;;;;;;2.20;82.77;101947.70;104725;1256;138558;-59
2023/12/15 00:18:39;;;;;;;29.50;17.10;;;;;;;2.19;82.50;101945.73;104886;1256;61303;-64
2023/12/15 00:21:06;;;;;;;28.50;17.30;;;;;;;2.21;82.64;101951.21;104692;1256;138159;-64
2023/12/15 00:23:34;;;;;;;32.90;19.20;;;;;;;2.20;82.55;101949.97;105037;1255;67239;-64
2023/12/15 00:26:00;;;;;;;30.40;17.30;;;;;;;2.21;82.68;101946.42;104748;1261;73332;-64
2023/12/15 00:28:27;;;;;;;26.60;16.70;;;;;;;2.21;82.43;101949.50;104707;1255;138441;-64
2023/12/15 00:30:53;;;;;;;25.80;17.30;;;;;;;2.18;82.55;101949.83;104789;1257;61248;-64
2023/12/15 00:33:20;;;;;;;25.00;17.70;;;;;;;2.16;82.45;101955.69;104703;1256;138595;-64
2023/12/15 00:35:48;;;;;;;25.60;16.90;;;;;;;2.14;82.46;101953.85;105059;1260;66658;-63
2023/12/15 00:38:15;;;;;;;27.20;18.20;;;;;;;2.13;82.79;101961.39;104983;1257;73620;-63
2023/12/15 00:40:42;;;;;;;27.40;17.80;;;;;;;2.13;82.71;101963.07;104693;1257;138567;-59
2023/12/15 00:43:08;;;;;;;26.70;17.40;;;;;;;2.11;82.68;101963.11;104751;1256;61510;-60
2023/12/15 00:45:35;;;;;;;35.40;18.70;;;;;;;2.12;82.61;101968.07;104849;1256;138441;-59
2023/12/15 00:48:02;;;;;;;29.00;18.70;;;;;;;2.13;82.79;101971.61;104934;1256;65822;-63
2023/12/15 00:50:29;;;;;;;32.30;18.10;;;;;;;2.16;82.77;101972.33;106333;1257;73679;-63
2023/12/15 00:52:57;;;;;;;29.90;18.30;;;;;;;2.18;82.70;101970.56;104868;1256;138926;-64
2023/12/15 00:55:23;;;;;;;28.00;17.90;;;;;;;2.19;82.81;101971.70;104740;1257;61357;-63
2023/12/15 00:57:50;;;;;;;27.80;18.90;;;;;;;2.20;82.80;101968.66;104722;1256;139124;-63
2023/12/15 01:00:17;;;;;;;28.10;18.80;;;;;;;2.22;82.79;101971.07;104757;1260;66851;-62
2023/12/15 01:02:44;;;;;;;30.70;17.70;;;;;;;2.24;82.68;101969.61;104593;1259;139231;-64
2023/12/15 01:05:11;;;;;;;29.60;18.50;;;;;;;2.22;82.65;101976.08;104683;1260;60470;-58
2023/12/15 01:07:37;;;;;;;26.30;18.60;;;;;;;2.21;82.64;101986.00;104917;1255;61949;-60
2023/12/15 01:10:05;;;;;;;28.00;19.10;;;;;;;2.20;82.51;101992.05;104710;1256;139062;-58
2023/12/15 01:12:31;;;;;;;30.80;19.10;;;;;;;2.23;82.61;101994.33;108803;1256;67583;-58
2023/12/15 01:14:58;;;;;;;27.90;17.90;;;;;;;2.26;82.73;101995.26;108690;1256;139184;-58
2023/12/15 01:17:25;;;;;;;30.60;18.50;;;;;;;2.29;82.76;101996.54;108805;1256;59022;-59
2023/12/15 01:19:52;;;;;;;28.50;19.00;;;;;;;2.31;82.66;101998.81;108986;1254;61803;-59
2023/12/15 01:22:18;;;;;;;31.30;18.20;;;;;;;2.32;82.48;102001.61;105062;1256;138320;-58
2023/12/15 01:24:45;;;;;;;31.40;19.60;;;;;;;2.33;82.60;102005.05;104853;1257;66225;-59
2023/12/15 01:27:12;;;;;;;31.60;19.40;;;;;;;2.35;82.55;102000.98;104579;1260;139100;-59
2023/12/15 01:29:38;;;;;;;29.80;17.30;;;;;;;2.37;82.60;102003.39;104615;1260;61293;-60
2023/12/15 01:32:06;;;;;;;28.40;19.60;;;;;;;2.39;82.70;102005.83;104450;1256;61251;-59
2023/12/15 01:34:32;;;;;;;33.30;20.90;;;;;;;2.42;82.55;102008.33;108704;1256;137878;-58
2023/12/15 01:36:59;;;;;;;29.20;19.80;;;;;;;2.44;82.68;102012.78;109040;1256;64741;-57
2023/12/15 01:39:26;;;;;;;33.40;20.50;;;;;;;2.45;82.51;102017.84;108833;1256;138245;-59
2023/12/15 01:41:52;;;;;;;30.50;19.60;;;;;;;2.46;82.74;102023.16;108773;1256;60256;-59
2023/12/15 01:44:19;;;;;;;30.40;20.30;;;;;;;2.47;82.65;102024.42;105111;1256;61293;-59
2023/12/15 01:46:46;;;;;;;31.00;20.10;;;;;;;2.46;82.37;102022.13;104702;1256;138441;-59
2023/12/15 01:49:12;;;;;;;30.90;20.00;;;;;;;2.44;82.39;102023.70;104774;1260;66244;-59
2023/12/15 01:51:39;;;;;;;31.00;19.60;;;;;;;2.41;82.28;102024.98;104751;1256;138503;-60
2023/12/15 01:54:05;;;;;;;30.20;19.30;;;;;;;2.38;82.46;102033.97;104776;1255;61239;-60
2023/12/15 01:56:32;;;;;;;28.90;19.60;;;;;;;2.37;82.42;102033.71;104832;1256;61258;-60
2023/12/15 01:58:59;;;;;;;31.40;21.40;;;;;;;2.39;82.64;102031.79;108689;1256;76224;-58
2023/12/15 02:01:26;;;;;;;34.00;19.90;;;;;;;2.39;82.62;102039.05;108758;1255;66224;-58
2023/12/15 02:03:52;;;;;;;37.00;21.60;;;;;;;2.38;82.62;102040.52;108699;1256;139101;-58
2023/12/15 02:06:19;;;;;;;30.70;20.30;;;;;;;2.38;82.70;102046.27;108790;1256;59047;-58
2023/12/15 02:08:47;;;;;;;32.20;20.60;;;;;;;2.41;82.83;102043.77;105681;1260;139190;-58
2023/12/15 02:11:15;;;;;;;36.00;22.00;;;;;;;2.44;82.73;102048.18;107664;1256;74110;-61
2023/12/15 02:13:41;;;;;;;29.30;20.90;;;;;;;2.48;82.70;102049.80;108750;1256;67096;-59
2023/12/15 02:16:08;;;;;;;36.00;21.80;;;;;;;2.51;82.69;102053.89;108713;1256;139715;-59
2023/12/15 02:18:35;;;;;;;36.60;21.70;;;;;;;2.55;82.72;102049.52;107046;1256;61290;-58
2023/12/15 02:21:02;;;;;;;35.00;22.30;;;;;;;2.58;82.54;102052.30;104745;1256;138954;-60
2023/12/15 02:23:29;;;;;;;31.70;20.60;;;;;;;2.58;82.43;102052.69;104995;1260;75631;-60
2023/12/15 02:25:55;;;;;;;31.20;21.10;;;;;;;2.58;82.52;102057.66;104936;1256;65461;-59
2023/12/15 02:28:22;;;;;;;33.80;21.00;;;;;;;2.56;82.41;102062.38;104833;1256;138521;-59
2023/12/15 02:30:48;;;;;;;29.00;19.30;;;;;;;2.54;82.57;102064.35;104350;1256;61377;-58
2023/12/15 02:33:15;;;;;;;30.20;20.10;;;;;;;2.48;82.13;102065.61;104737;1260;138806;-57
2023/12/15 02:35:42;;;;;;;32.10;19.20;;;;;;;2.42;82.27;102070.67;104724;1256;74533;-58
2023/12/15 02:38:09;;;;;;;29.10;19.40;;;;;;;2.37;82.33;102069.36;104796;1258;65840;-59
2023/12/15 02:40:36;;;;;;;29.80;18.70;;;;;;;2.32;82.40;102069.38;104772;1256;138775;-58
2023/12/15 02:43:03;;;;;;;30.60;20.50;;;;;;;2.29;82.54;102070.69;104850;1256;61309;-60
2023/12/15 02:45:29;;;;;;;29.00;19.30;;;;;;;2.25;82.52;102070.04;104643;1256;138496;-58
2023/12/15 02:47:56;;;;;;;34.10;20.90;;;;;;;2.21;82.53;102072.45;104750;1260;75945;-58
2023/12/15 02:50:23;;;;;;;31.40;20.00;;;;;;;2.17;82.51;102074.73;104487;1260;65633;-58
2023/12/15 02:52:49;;;;;;;27.80;19.20;;;;;;;2.14;82.80;102067.05;104439;1256;138457;-58
2023/12/15 02:55:16;;;;;;;28.10;18.30;;;;;;;2.11;82.67;102067.91;104162;1257;61241;-60
2023/12/15 02:57:43;;;;;;;30.40;19.60;;;;;;;2.11;82.92;102079.30;104761;1255;139728;-63
2023/12/15 03:00:10;;;;;;;28.20;19.00;;;;;;;2.08;82.87;102084.60;105049;1260;74165;-63
2023/12/15 03:02:39;;;;;;;26.00;17.60;;;;;;;2.05;82.89;102087.34;105153;1260;138806;-62
2023/12/15 03:05:06;;;;;;;23.70;15.60;;;;;;;2.05;82.86;102092.69;106035;1254;73351;-58
2023/12/15 03:07:33;;;;;;;28.30;17.00;;;;;;;2.02;82.87;102095.57;109001;1256;58931;-59
2023/12/15 03:09:59;;;;;;;25.00;16.30;;;;;;;2.02;82.98;102095.38;104958;1256;138592;-59
2023/12/15 03:12:26;;;;;;;26.80;16.50;;;;;;;2.04;83.17;102098.45;104843;1256;74786;-59
2023/12/15 03:14:56;;;;;;;23.80;16.40;;;;;;;2.04;83.03;102101.96;104852;1257;138753;-60
2023/12/15 03:17:23;;;;;;;26.10;17.40;;;;;;;2.05;83.08;102100.63;108876;1256;74017;-60
2023/12/15 03:19:50;;;;;;;22.60;15.40;;;;;;;2.07;83.03;102099.94;105324;1256;61130;-58
2023/12/15 03:22:17;;;;;;;21.10;15.20;;;;;;;2.08;83.13;102099.70;104592;1260;138983;-60
2023/12/15 03:24:43;;;;;;;23.10;15.40;;;;;;;2.10;83.07;102103.98;104678;1256;74106;-59
2023/12/15 03:27:10;;;;;;;21.60;15.10;;;;;;;2.13;83.11;102111.10;104679;1259;139297;-60
2023/12/15 03:29:37;;;;;;;20.50;14.10;;;;;;;2.13;83.20;102129.03;104993;1258;72713;-59
2023/12/15 03:32:04;;;;;;;22.60;13.90;;;;;;;2.13;83.15;102129.91;104810;1257;61169;-59
2023/12/15 03:34:31;;;;;;;19.80;13.90;;;;;;;2.13;83.05;102126.95;108904;1256;138677;-59
2023/12/15 03:36:57;;;;;;;19.40;14.10;;;;;;;2.13;83.10;102131.94;106583;1256;73691;-59
2023/12/15 03:39:24;;;;;;;23.30;13.20;;;;;;;2.14;82.90;102133.05;104889;1255;138995;-59
2023/12/15 03:41:50;;;;;;;18.20;12.80;;;;;;;2.15;82.89;102137.98;104800;1256;72972;-59
2023/12/15 03:44:17;;;;;;;18.00;11.70;;;;;;;2.15;82.89;102138.67;104701;1256;61202;-59
2023/12/15 03:46:44;;;;;;;18.20;11.00;;;;;;;2.14;82.88;102137.58;104657;1260;137710;-59
2023/12/15 03:49:10;;;;;;;15.30;11.20;;;;;;;2.14;82.87;102115.05;104838;1256;73842;-60
2023/12/15 03:51:37;;;;;;;13.10;9.90;;;;;;;2.11;82.70;102108.77;104738;1259;137934;-59
2023/12/15 03:54:03;;;;;;;17.70;11.20;;;;;;;2.10;82.89;102116.44;104771;1258;71082;-59
2023/12/15 03:56:31;;;;;;;13.00;10.60;;;;;;;2.10;82.85;102114.23;104348;1258;61184;-59
2023/12/15 03:58:59;;;;;;;13.10;9.70;;;;;;;2.09;82.86;102114.96;104512;1256;138743;-58
2023/12/15 04:01:25;;;;;;;13.30;9.50;;;;;;;2.04;82.58;102117.19;104793;1260;75899;-60
2023/12/15 04:03:52;;;;;;;13.60;9.90;;;;;;;2.01;82.68;102115.48;104607;1260;139997;-60
2023/12/15 04:06:18;;;;;;;13.60;9.60;;;;;;;1.99;82.73;102117.92;104704;1255;73691;-64
2023/12/15 04:08:45;;;;;;;13.70;9.70;;;;;;;1.98;82.78;102122.38;104753;1256;139852;-62
2023/12/15 04:11:12;;;;;;;14.00;10.50;;;;;;;1.99;83.09;102132.16;104782;1255;61360;-63
2023/12/15 04:13:38;;;;;;;13.80;10.10;;;;;;;2.00;82.99;102130.84;104760;1256;75019;-62
2023/12/15 04:16:06;;;;;;;15.60;11.10;;;;;;;1.99;83.15;102131.00;104802;1260;138404;-62
2023/12/15 04:18:33;;;;;;;12.30;9.70;;;;;;;2.02;82.99;102135.67;105482;1256;71856;-62
2023/12/15 04:21:02;;;;;;;13.80;9.70;;;;;;;2.03;83.04;102142.84;106102;1255;138619;-62
2023/12/15 04:23:29;;;;;;;13.00;9.20;;;;;;;2.04;83.05;102146.59;105641;1257;61246;-63
2023/12/15 04:25:58;;;;;;;11.40;8.70;;;;;;;2.06;83.09;102150.56;104965;1258;75681;-64
2023/12/15 04:28:27;;;;;;;13.00;8.50;;;;;;;2.08;82.96;102147.61;104705;1260;138744;-63
2023/12/15 04:30:54;;;;;;;10.50;8.20;;;;;;;2.06;82.85;102144.70;104861;1260;73700;-63
2023/12/15 04:33:20;;;;;;;13.00;8.20;;;;;;;2.07;82.95;102143.25;104759;1256;137601;-64
2023/12/15 04:35:47;;;;;;;10.40;7.80;;;;;;;2.07;82.86;102137.70;104777;1260;61162;-63
2023/12/15 04:38:14;;;;;;;11.90;8.50;;;;;;;2.07;82.89;102137.31;104878;1260;75040;-63
2023/12/15 04:40:42;;;;;;;13.40;9.80;;;;;;;2.06;82.81;102143.11;104903;1257;138183;-59
2023/12/15 04:43:09;;;;;;;16.10;10.50;;;;;;;2.06;82.75;102138.09;104894;1259;71761;-58
2023/12/15 04:45:36;;;;;;;16.40;10.70;;;;;;;2.04;82.89;102135.71;104856;1256;138588;-58
2023/12/15 04:48:02;;;;;;;16.40;11.20;;;;;;;2.04;82.88;102141.42;104738;1256;61418;-58
2023/12/15 04:50:29;;;;;;;15.70;10.60;;;;;;;2.05;82.86;102142.70;104678;1255;74034;-59
2023/12/15 04:52:56;;;;;;;18.80;11.60;;;;;;;2.07;82.99;102153.05;104586;1259;140288;-64
2023/12/15 04:55:22;;;;;;;16.30;10.50;;;;;;;2.07;82.72;102165.56;104143;1256;73750;-63
2023/12/15 04:57:49;;;;;;;11.60;8.70;;;;;;;2.06;82.76;102164.21;104611;1260;138559;-65
2023/12/15 05:00:16;;;;;;;13.80;9.20;;;;;;;2.05;82.68;102168.53;104694;1256;61247;-65
2023/12/15 05:02:42;;;;;;;10.30;8.20;;;;;;;2.06;82.56;102165.64;105130;1257;138520;-64
2023/12/15 05:05:10;;;;;;;9.40;7.70;;;;;;;2.06;82.50;102164.61;104851;1261;66261;-64
2023/12/15 05:07:37;;;;;;;9.70;7.30;;;;;;;2.07;82.47;102162.61;104737;1261;72201;-62
2023/12/15 05:10:04;;;;;;;10.50;7.40;;;;;;;2.05;82.51;102157.06;104619;1256;138383;-60
2023/12/15 05:12:35;;;;;;;11.10;8.10;;;;;;;2.08;82.56;102158.52;108824;1256;59944;-59
2023/12/15 05:15:03;;;;;;;12.70;8.60;;;;;;;2.08;82.50;102159.08;106100;1258;138808;-59
2023/12/15 05:17:30;;;;;;;10.00;8.10;;;;;;;2.08;82.45;102157.52;107638;1256;67722;-62
2023/12/15 05:19:57;;;;;;;11.50;7.90;;;;;;;2.09;82.35;102164.33;105794;1256;73224;-59
2023/12/15 05:22:24;;;;;;;10.30;7.30;;;;;;;2.10;82.37;102168.02;104587;1259;137662;-59
2023/12/15 05:24:51;;;;;;;12.30;7.40;;;;;;;2.10;82.31;102168.56;104666;1260;61236;-59
2023/12/15 05:27:18;;;;;;;9.70;7.10;;;;;;;2.08;82.47;102168.09;104491;1256;138288;-59
2023/12/15 05:29:45;;;;;;;9.00;6.60;;;;;;;2.07;82.33;102166.30;104646;1258;65671;-59
2023/12/15 05:32:12;;;;;;;9.40;7.50;;;;;;;2.07;82.35;102169.18;104744;1257;73840;-58
2023/12/15 05:34:39;;;;;;;12.00;7.90;;;;;;;2.04;82.28;102167.58;104660;1256;138695;-59
2023/12/15 05:37:06;;;;;;;10.60;7.90;;;;;;;2.00;82.32;102168.47;104693;1260;61165;-59
2023/12/15 05:39:33;;;;;;;11.10;8.10;;;;;;;1.99;82.37;102165.04;104640;1256;138860;-61
2023/12/15 05:42:00;;;;;;;11.40;7.50;;;;;;;1.97;82.42;102166.30;104735;1260;65589;-63
2023/12/15 05:44:26;;;;;;;9.60;7.80;;;;;;;1.96;82.37;102165.52;104892;1256;72143;-62
2023/12/15 05:46:53;;;;;;;9.50;7.70;;;;;;;1.95;82.47;102156.61;104725;1256;138025;-63
2023/12/15 05:49:20;;;;;;;14.20;8.00;;;;;;;1.95;82.30;102154.51;104770;1261;61170;-58
2023/12/15 05:51:47;;;;;;;11.80;9.10;;;;;;;1.93;82.28;102153.70;104736;1256;138473;-59
2023/12/15 05:54:14;;;;;;;12.00;9.20;;;;;;;1.92;82.32;102153.56;104697;1256;65702;-59
2023/12/15 05:56:41;;;;;;;13.70;10.70;;;;;;;1.92;82.44;102157.93;104629;1256;138676;-60
2023/12/15 05:59:08;;;;;;;20.40;16.10;;;;;;;1.94;82.40;102166.25;104654;1256;61362;-59
2023/12/15 06:01:35;;;;;;;40.40;28.00;;;;;;;1.97;82.29;102163.70;108800;1256;61498;-59
2023/12/15 06:04:01;;;;;;;36.60;25.20;;;;;;;2.01;82.64;102167.15;108764;1256;139197;-59
2023/12/15 06:06:28;;;;;;;49.00;32.20;;;;;;;2.04;82.38;102172.21;105030;1259;65963;-59
2023/12/15 06:08:55;;;;;;;43.00;28.20;;;;;;;2.05;82.50;102174.95;104563;1256;138763;-58
2023/12/15 06:11:23;;;;;;;69.90;42.50;;;;;;;2.07;82.35;102175.44;104705;1255;60758;-59
2023/12/15 06:13:50;;;;;;;65.20;39.10;;;;;;;2.08;82.41;102172.52;104889;1256;61588;-59
2023/12/15 06:16:20;;;;;;;89.20;52.10;;;;;;;2.09;82.42;102178.50;104592;1255;137776;-60
2023/12/15 06:18:47;;;;;;;115.20;55.70;;;;;;;2.10;82.35;102178.92;104766;1260;65865;-58
2023/12/15 06:21:23;;;;;;;189.50;78.60;;;;;;;2.10;82.29;102182.39;104561;1256;138228;-58
2023/12/15 06:23:50;;;;;;;208.30;84.60;;;;;;;2.10;82.34;102186.07;104541;1256;61317;-59
2023/12/15 06:26:18;;;;;;;340.40;132.00;;;;;;;2.11;82.43;102200.02;108793;1256;59726;-61
2023/12/15 06:28:45;;;;;;;296.20;121.50;;;;;;;2.12;82.31;102199.34;105971;1256;139245;-59
2023/12/15 06:31:12;;;;;;;317.50;128.90;;;;;;;2.13;82.26;102198.25;104651;1260;66354;-58
2023/12/15 06:33:39;;;;;;;435.10;196.60;;;;;;;2.13;82.32;102203.60;104563;1260;139125;-58
2023/12/15 06:36:07;;;;;;;189.60;87.40;;;;;;;2.15;82.46;102203.27;104918;1256;61287;-60
2023/12/15 06:38:37;;;;;;;120.00;59.50;;;;;;;2.19;82.46;102199.73;109065;1255;138847;-60
2023/12/15 06:41:04;;;;;;;137.80;73.40;;;;;;;2.22;82.46;102201.05;109045;1256;74733;-60
2023/12/15 06:43:32;;;;;;;96.10;50.20;;;;;;;2.24;82.49;102200.20;109037;1256;66749;-60
2023/12/15 06:45:58;;;;;;;66.80;42.20;;;;;;;2.28;82.42;102199.98;108928;1256;138897;-60
2023/12/15 06:48:25;;;;;;;71.50;48.10;;;;;;;2.34;82.53;102197.86;108992;1256;59296;-60
2023/12/15 06:50:52;;;;;;;61.40;41.80;;;;;;;2.39;82.48;102193.77;108942;1256;138432;-60
2023/12/15 06:53:18;;;;;;;47.00;30.70;;;;;;;2.44;82.36;102188.95;108210;1255;74719;-60
2023/12/15 06:55:45;;;;;;;90.40;51.50;;;;;;;2.46;82.19;102185.02;104808;1259;72253;-59
2023/12/15 06:58:12;;;;;;;110.40;67.30;;;;;;;2.49;82.20;102190.75;104766;1260;138877;-59
2023/12/15 07:00:39;;;;;;;40.10;27.20;;;;;;;2.50;82.37;102195.39;105084;1256;61352;-59
2023/12/15 07:03:06;;;;;;;36.10;24.10;;;;;;;2.52;82.09;102196.95;104959;1258;138673;-59
2023/12/15 07:05:33;;;;;;;24.10;17.80;;;;;;;2.53;82.26;102200.63;105099;1256;75881;-60
2023/12/15 07:07:59;;;;;;;97.70;60.40;;;;;;;2.51;82.20;102197.23;105008;1256;66725;-59
2023/12/15 07:10:26;;;;;;;187.80;93.00;;;;;;;2.50;82.13;102200.60;104727;1256;138405;-59
2023/12/15 07:12:53;;;;;;;162.80;74.30;;;;;;;2.49;82.24;102198.60;104786;1256;61372;-59
2023/12/15 07:15:19;;;;;;;111.70;61.20;;;;;;;2.46;82.02;102200.27;104859;1256;138311;-66
2023/12/15 07:17:46;;;;;;;62.00;42.00;;;;;;;2.41;81.84;102198.42;105077;1255;75049;-59
2023/12/15 07:20:13;;;;;;;40.10;26.60;;;;;;;2.31;81.79;102201.11;105063;1259;65812;-59
2023/12/15 07:22:39;;;;;;;48.60;31.80;;;;;;;2.27;82.00;102200.76;104803;1256;138623;-59
2023/12/15 07:25:06;;;;;;;83.80;57.20;;;;;;;2.27;82.10;102201.34;104909;1256;64152;-60
2023/12/15 07:27:34;;;;;;;46.10;32.20;;;;;;;2.30;82.22;102202.07;104888;1258;138407;-62
2023/12/15 07:30:01;;;;;;;80.80;50.90;;;;;;;2.31;82.25;102202.83;104961;1256;75141;-59
2023/12/15 07:32:27;;;;;;;52.50;36.90;;;;;;;2.34;82.26;102203.43;104898;1258;67195;-59
2023/12/15 07:34:54;;;;;;;70.60;43.20;;;;;;;2.40;82.61;102201.80;108861;1256;138272;-60
2023/12/15 07:37:21;;;;;;;73.50;47.00;;;;;;;2.42;82.25;102202.72;109062;1256;58813;-59
2023/12/15 07:39:47;;;;;;;54.70;34.30;;;;;;;2.45;82.26;102204.30;108990;1256;138858;-60
2023/12/15 07:42:14;;;;;;;69.80;42.90;;;;;;;2.51;82.43;102211.40;109095;1255;74016;-59
2023/12/15 07:44:41;;;;;;;62.30;39.40;;;;;;;2.56;82.24;102209.55;108935;1256;139031;-60
2023/12/15 07:47:07;;;;;;;93.10;56.00;;;;;;;2.61;82.08;102209.60;107668;1259;73839;-59
2023/12/15 07:49:34;;;;;;;90.60;50.20;;;;;;;2.69;82.12;102211.64;105080;1261;61309;-59
2023/12/15 07:52:01;;;;;;;130.70;74.00;;;;;;;2.75;81.96;102210.02;104763;1257;138356;-59
2023/12/15 07:54:29;;;;;;;98.60;56.80;;;;;;;2.78;81.80;102214.78;104922;1261;75063;-60
2023/12/15 07:56:56;;;;;;;92.00;52.50;;;;;;;2.78;81.75;102216.96;109003;1256;137649;-60
2023/12/15 07:59:23;;;;;;;88.30;51.00;;;;;;;2.84;81.99;102220.23;109057;1254;71737;-60
2023/12/15 08:01:50;;;;;;;79.90;44.10;;;;;;;2.93;81.96;102222.91;109062;1256;58869;-60
2023/12/15 08:04:18;;;;;;;106.00;56.60;;;;;;;3.01;81.95;102219.30;106638;1256;138519;-59
2023/12/15 08:06:45;;;;;;;140.00;75.00;;;;;;;3.01;81.66;102215.68;104925;1258;74159;-58
2023/12/15 08:09:11;;;;;;;139.60;73.90;;;;;;;3.00;81.48;102216.67;104832;1256;138919;-59
2023/12/15 08:11:38;;;;;;;93.50;51.90;;;;;;;3.02;81.71;102218.57;105001;1256;71877;-59
2023/12/15 08:14:05;;;;;;;116.20;61.80;;;;;;;3.10;81.77;102221.45;104855;1261;60511;-59
2023/12/15 08:16:31;;;;;;;136.80;75.50;;;;;;;3.21;81.78;102221.60;104906;1258;138817;-59
2023/12/15 08:18:58;;;;;;;127.30;67.90;;;;;;;3.27;81.72;102224.35;104890;1256;73860;-60
2023/12/15 08:21:25;;;;;;;103.00;53.10;;;;;;;3.29;81.69;102225.73;104929;1261;138619;-58
2023/12/15 08:23:51;;;;;;;107.90;55.50;;;;;;;3.28;81.47;102226.02;105070;1256;72133;-60
2023/12/15 08:26:19;;;;;;;269.80;127.50;;;;;;;3.31;81.47;102231.73;104993;1259;61366;-59
2023/12/15 08:28:46;;;;;;;138.80;67.70;;;;;;;3.33;81.49;102237.11;108981;1256;138806;-60
2023/12/15 08:31:13;;;;;;;114.00;57.70;;;;;;;3.36;81.52;102238.73;108389;1258;74444;-60
2023/12/15 08:33:39;;;;;;;117.80;58.40;;;;;;;3.37;81.28;102239.48;104786;1256;138220;-60
2023/12/15 08:36:08;;;;;;;83.10;40.40;;;;;;;3.37;81.27;102242.14;104877;1256;72181;-68
2023/12/15 08:38:35;;;;;;;160.70;73.50;;;;;;;3.37;81.19;102244.55;108991;1256;139082;-59
2023/12/15 08:41:02;;;;;;;159.40;73.60;;;;;;;3.38;81.11;102248.05;109131;1256;59108;-59
2023/12/15 08:43:29;;;;;;;211.90;102.80;;;;;;;3.38;81.06;102253.16;109096;1256;74153;-59
2023/12/15 08:45:56;;;;;;;79.70;45.00;;;;;;;3.39;81.01;102260.48;108973;1256;139793;-60
2023/12/15 08:48:22;;;;;;;213.20;98.40;;;;;;;3.42;81.07;102260.02;109102;1255;71796;-66
2023/12/15 08:50:49;;;;;;;182.40;88.50;;;;;;;3.44;81.04;102265.21;108940;1254;139267;-67
2023/12/15 08:53:18;;;;;;;148.00;77.60;;;;;;;3.49;81.12;102260.95;109096;1258;59064;-67
2023/12/15 08:55:45;;;;;;;205.10;110.10;;;;;;;3.52;81.07;102261.34;107399;1260;74743;-59
2023/12/15 08:58:12;;;;;;;144.20;83.40;;;;;;;3.60;81.26;102263.36;104885;1260;138769;-59
2023/12/15 09:00:38;;;;;;;179.60;105.80;;;;;;;3.69;81.21;102259.70;104965;1256;73269;-67
2023/12/15 09:03:05;;;;;;;74.90;49.30;;;;;;;3.77;81.21;102262.88;104833;1256;139204;-66
2023/12/15 09:05:32;;;;;;;98.10;67.40;;;;;;;3.86;81.23;102260.30;105034;1256;61250;-67
2023/12/15 09:07:59;;;;;;;126.00;85.10;;;;;;;3.96;81.18;102259.67;104937;1256;74986;-67
2023/12/15 09:10:26;;;;;;;40.70;30.10;;;;;;;4.08;81.15;102257.91;104828;1258;137943;-67
2023/12/15 09:12:53;;;;;;;26.20;20.50;;;;;;;4.20;81.33;102259.84;109048;1255;72931;-67
2023/12/15 09:15:20;;;;;;;19.60;16.90;;;;;;;4.30;81.25;102257.98;108963;1256;138432;-67
2023/12/15 09:17:46;;;;;;;16.60;13.80;;;;;;;4.40;81.21;102256.88;107468;1258;61247;-68
2023/12/15 09:20:13;;;;;;;18.10;16.20;;;;;;;4.47;81.02;102257.91;104968;1259;75874;-67
2023/12/15 09:22:40;;;;;;;19.10;16.30;;;;;;;4.55;80.92;102262.13;104658;1261;138534;-67
2023/12/15 09:25:07;;;;;;;9.10;8.10;;;;;;;4.67;80.98;102267.20;104970;1258;73949;-67
2023/12/15 09:27:33;;;;;;;10.50;7.10;;;;;;;4.76;80.79;102265.73;104859;1256;138404;-67
2023/12/15 09:30:01;;;;;;;9.30;7.40;;;;;;;4.83;80.75;102268.00;104973;1260;61275;-67
2023/12/15 09:32:27;;;;;;;9.20;6.90;;;;;;;4.86;80.47;102267.23;105134;1261;73797;-67
2023/12/15 09:34:54;;;;;;;11.60;7.10;;;;;;;4.89;80.48;102267.90;104993;1259;138125;-67
2023/12/15 09:37:22;;;;;;;9.50;7.70;;;;;;;4.93;80.43;102267.80;105169;1256;70899;-67
2023/12/15 09:39:49;;;;;;;8.80;6.10;;;;;;;4.93;80.25;102270.32;104963;1259;137523;-66
2023/12/15 09:42:16;;;;;;;7.70;5.20;;;;;;;4.87;80.07;102270.91;105044;1259;61299;-68
2023/12/15 09:44:43;;;;;;;7.40;4.80;;;;;;;4.83;80.04;102277.41;104905;1259;138573;-66
2023/12/15 09:47:10;;;;;;;6.20;4.60;;;;;;;4.78;79.87;102281.52;104968;1260;65611;-68
2023/12/15 09:49:37;;;;;;;6.50;4.80;;;;;;;4.74;79.84;102278.48;108813;1261;73294;-66
2023/12/15 09:52:04;;;;;;;8.10;5.40;;;;;;;4.74;79.90;102274.84;108809;1257;138165;-66
2023/12/15 09:54:31;;;;;;;7.30;5.30;;;;;;;4.80;80.01;102278.21;108861;1256;60480;-67
2023/12/15 09:56:58;;;;;;;8.60;5.00;;;;;;;4.84;79.88;102280.95;108980;1256;138326;-66
2023/12/15 09:59:25;;;;;;;6.40;4.50;;;;;;;4.81;79.58;102274.13;109125;1256;64710;-67
2023/12/15 10:01:51;;;;;;;8.70;4.40;;;;;;;4.81;79.57;102277.94;109034;1255;73883;-67
2023/12/15 10:04:18;;;;;;;6.70;5.10;;;;;;;4.83;79.71;102276.74;108923;1258;138191;-67
2023/12/15 10:06:46;;;;;;;6.60;5.40;;;;;;;4.90;79.66;102284.64;109064;1258;61048;-67
2023/12/15 10:09:13;;;;;;;6.20;4.90;;;;;;;4.98;79.69;102282.16;108889;1256;137563;-66
2023/12/15 10:11:40;;;;;;;7.00;5.90;;;;;;;5.11;79.82;102283.94;108940;1261;66273;-69
2023/12/15 10:14:07;;;;;;;7.40;5.20;;;;;;;5.18;79.57;102287.04;109135;1255;71785;-67
2023/12/15 10:16:37;;;;;;;6.90;4.80;;;;;;;5.27;79.59;102285.56;108968;1258;137266;-67
2023/12/15 10:19:04;;;;;;;5.70;4.90;;;;;;;5.41;79.70;102288.67;109038;1259;59848;-68
2023/12/15 10:21:32;;;;;;;8.60;4.70;;;;;;;5.56;79.67;102288.80;108931;1256;138496;-67
2023/12/15 10:23:59;;;;;;;6.10;4.70;;;;;;;5.73;79.64;102289.69;109057;1256;65037;-67
2023/12/15 10:26:29;;;;;;;7.90;5.20;;;;;;;5.94;79.53;102286.21;109047;1256;71090;-66
2023/12/15 10:28:56;;;;;;;6.40;4.70;;;;;;;6.15;79.45;102290.12;108984;1256;137845;-67
2023/12/15 10:31:26;;;;;;;5.40;4.50;;;;;;;6.27;79.05;102296.63;108959;1256;59546;-67
2023/12/15 10:33:53;;;;;;;5.50;4.50;;;;;;;6.35;78.74;102293.87;108910;1259;140411;-66
2023/12/15 10:36:19;;;;;;;6.20;4.60;;;;;;;6.40;78.60;102297.73;108914;1256;64457;-67
2023/12/15 10:38:46;;;;;;;5.40;4.10;;;;;;;6.44;78.46;102301.46;108948;1254;137995;-66
2023/12/15 10:41:13;;;;;;;6.70;3.80;;;;;;;6.40;78.07;102300.71;108837;1256;222683;-67
2023/12/15 10:43:39;;;;;;;4.30;3.90;;;;;;;6.33;77.80;102304.93;108980;1255;60745;-68
2023/12/15 10:46:07;;;;;;;6.40;4.80;;;;;;;6.22;77.61;102305.55;108770;1257;139515;-66
2023/12/15 10:48:34;;;;;;;5.30;3.70;;;;;;;6.11;77.43;102309.16;109041;1256;66411;-66
2023/12/15 10:51:00;;;;;;;6.00;4.60;;;;;;;6.01;77.51;102310.94;108888;1259;139307;-66
2023/12/15 10:53:27;;;;;;;4.10;3.30;;;;;;;5.93;77.52;102312.27;109034;1256;59294;-66
2023/12/15 10:55:54;;;;;;;4.90;3.60;;;;;;;5.85;77.46;102312.42;109038;1258;59469;-67
2023/12/15 10:58:20;;;;;;;5.60;4.00;;;;;;;5.79;77.51;102310.27;108907;1256;138067;-67
2023/12/15 11:00:47;;;;;;;4.90;3.90;;;;;;;5.75;77.52;102314.73;109065;1256;65684;-67
2023/12/15 11:03:14;;;;;;;6.40;4.30;;;;;;;5.69;77.45;102311.31;108915;1256;138346;-66
2023/12/15 11:05:41;;;;;;;7.60;5.10;;;;;;;5.63;77.59;102306.61;106557;1262;61376;-66
2023/12/15 11:08:07;;;;;;;10.40;7.20;;;;;;;5.59;77.62;102311.56;104915;1256;61298;-66